Time;durP1;ratioP1;P1;durP2;ratioP2;P2;SDS_P1;SDS_P2;PMS_P1;PMS_P2;Temp;Humidity;BMP_temperature;BMP_pressure;BME280_temperature;BME280_humidity;BME280_pressure;Samples;Min_cycle;Max_cycle;Signal;HPM_P1;HPM_P2
2021/05/24 00:02:11;;;;;;;4.13;0.80;;;11.20;76.40;;;;;;3576061;40;20151;-81
2021/05/24 00:04:38;;;;;;;2.45;0.73;;;11.20;76.60;;;;;;3566882;40;20044;-81
2021/05/24 00:07:04;;;;;;;5.60;1.50;;;11.20;76.50;;;;;;3558922;40;20041;-81
2021/05/24 00:09:31;;;;;;;7.05;0.77;;;11.20;76.60;;;;;;3575975;40;20044;-81
2021/05/24 00:11:57;;;;;;;2.97;0.50;;;11.20;76.80;;;;;;3558880;40;20037;-82
2021/05/24 00:14:25;;;;;;;1.70;0.60;;;11.20;76.40;;;;;;3567051;40;20073;-82
2021/05/24 00:16:51;;;;;;;6.18;0.80;;;11.20;76.60;;;;;;3575932;40;20043;-82
2021/05/24 00:19:19;;;;;;;5.30;0.93;;;11.10;76.70;;;;;;3568277;40;20243;-82
2021/05/24 00:21:44;;;;;;;2.88;1.02;;;11.10;76.90;;;;;;3575965;40;20048;-81
2021/05/24 00:24:10;;;;;;;4.03;0.70;;;11.10;77.20;;;;;;3566912;40;20322;-83
2021/05/24 00:26:37;;;;;;;1.25;0.80;;;11.10;77.40;;;;;;3576029;40;20066;-81
2021/05/24 00:29:03;;;;;;;3.03;0.73;;;11.10;77.50;;;;;;3566882;40;20132;-83
2021/05/24 00:31:29;;;;;;;7.72;0.60;;;11.00;77.60;;;;;;3578632;40;20235;-83
2021/05/24 00:33:58;;;;;;;2.10;0.50;;;11.00;77.80;;;;;;3566812;40;20041;-80
2021/05/24 00:36:24;;;;;;;5.45;2.05;;;11.00;77.60;;;;;;3558225;40;20041;-84
2021/05/24 00:38:50;;;;;;;6.07;1.00;;;11.00;77.20;;;;;;3566441;40;20041;-82
2021/05/24 00:41:16;;;;;;;5.53;1.10;;;11.00;77.00;;;;;;3567000;40;20350;-82
2021/05/24 00:43:42;;;;;;;3.13;1.15;;;11.00;77.30;;;;;;3576461;40;20061;-83
2021/05/24 00:46:08;;;;;;;3.78;1.20;;;11.00;77.20;;;;;;3574680;40;20130;-82
2021/05/24 00:48:34;;;;;;;3.95;1.00;;;10.90;77.40;;;;;;3575212;40;20041;-81
2021/05/24 00:51:00;;;;;;;3.20;0.80;;;10.90;77.70;;;;;;3575950;40;20052;-82
2021/05/24 00:53:25;;;;;;;4.45;0.68;;;11.00;77.70;;;;;;3575055;40;20410;-82
2021/05/24 00:55:51;;;;;;;2.53;0.98;;;11.00;77.50;;;;;;3575072;40;20275;-82
2021/05/24 00:58:17;;;;;;;4.50;0.95;;;11.00;78.10;;;;;;3563138;40;20049;-83
2021/05/24 01:00:47;;;;;;;3.40;0.70;;;11.00;77.20;;;;;;3566777;40;20047;-83
2021/05/24 01:03:14;;;;;;;2.58;0.60;;;11.00;77.50;;;;;;3575818;40;20347;-84
2021/05/24 01:05:41;;;;;;;2.90;0.90;;;11.00;78.30;;;;;;3576036;40;20052;-83
2021/05/24 01:08:09;;;;;;;2.95;0.85;;;11.00;77.40;;;;;;3575604;40;20071;-81
2021/05/24 01:10:35;;;;;;;2.95;0.70;;;11.00;77.50;;;;;;3574639;40;20033;-83
2021/05/24 01:13:04;;;;;;;2.35;0.60;;;11.00;77.50;;;;;;3574576;40;20056;-80
2021/05/24 01:15:30;;;;;;;2.00;0.90;;;11.00;77.40;;;;;;3566444;40;20041;-82
2021/05/24 01:17:56;;;;;;;2.22;0.55;;;11.10;78.00;;;;;;3574318;40;20041;-82
2021/05/24 01:20:27;;;;;;;1.80;0.60;;;11.00;77.50;;;;;;3574795;40;20049;-82
2021/05/24 01:23:07;;;;;;;1.90;0.85;;;11.00;78.60;;;;;;3566213;40;20044;-82
2021/05/24 01:25:44;;;;;;;1.20;0.73;;;11.00;78.10;;;;;;3574629;40;20041;-82
2021/05/24 01:28:13;;;;;;;4.20;0.95;;;11.00;78.90;;;;;;3575800;40;20048;-82
2021/05/24 01:30:41;;;;;;;4.40;1.27;;;10.90;79.80;;;;;;3575722;40;20036;-81
2021/05/24 01:33:08;;;;;;;3.10;1.00;;;10.90;79.10;;;;;;3577106;40;20415;-82
2021/05/24 01:35:36;;;;;;;1.95;0.75;;;10.90;80.10;;;;;;3577529;40;20077;-82
2021/05/24 01:38:03;;;;;;;3.30;1.00;;;10.80;81.10;;;;;;3576444;40;20041;-82
2021/05/24 01:40:29;;;;;;;4.40;0.70;;;10.80;80.60;;;;;;3576479;40;20043;-83
2021/05/24 01:42:57;;;;;;;3.50;0.73;;;10.70;81.30;;;;;;3576326;40;20045;-82
2021/05/24 01:45:27;;;;;;;2.60;1.58;;;10.70;81.20;;;;;;3576420;40;20048;-83
2021/05/24 01:47:58;;;;;;;3.55;0.45;;;10.70;81.40;;;;;;3577615;40;20085;-81
2021/05/24 01:50:24;;;;;;;3.20;0.47;;;10.70;81.40;;;;;;3577496;40;20049;-79
2021/05/24 01:52:50;;;;;;;4.43;0.50;;;10.60;82.10;;;;;;3577427;40;20413;-79
2021/05/24 01:55:16;;;;;;;3.30;0.63;;;10.60;83.00;;;;;;3576220;40;20582;-80
2021/05/24 01:57:43;;;;;;;2.30;0.32;;;10.60;82.80;;;;;;3574945;40;20592;-81
2021/05/24 02:00:11;;;;;;;3.22;0.50;;;10.60;81.90;;;;;;3576153;40;20056;-81
2021/05/24 02:02:42;;;;;;;2.17;0.60;;;10.70;82.50;;;;;;3576704;40;20441;-81
2021/05/24 02:05:10;;;;;;;2.00;0.55;;;10.70;82.60;;;;;;3575991;40;20049;-82
2021/05/24 02:07:36;;;;;;;2.85;0.90;;;10.70;82.70;;;;;;3575919;40;20037;-81
2021/05/24 02:10:08;;;;;;;4.60;1.00;;;10.60;82.10;;;;;;3576019;40;20077;-83
2021/05/24 02:12:34;;;;;;;5.13;1.17;;;10.70;83.10;;;;;;3576059;40;20048;-80
2021/05/24 02:15:00;;;;;;;5.72;1.58;;;10.60;82.80;;;;;;3567812;40;20044;-79
2021/05/24 02:17:27;;;;;;;3.85;1.15;;;10.60;82.80;;;;;;3575031;40;20052;-80
2021/05/24 02:19:54;;;;;;;2.67;1.10;;;10.60;82.70;;;;;;3576138;40;20049;-84
2021/05/24 02:22:20;;;;;;;2.72;0.90;;;10.60;82.00;;;;;;3575024;40;20048;-79
2021/05/24 02:24:46;;;;;;;2.33;0.73;;;10.60;82.30;;;;;;3577059;40;20070;-81
2021/05/24 02:27:12;;;;;;;2.53;1.05;;;10.60;83.00;;;;;;3575787;40;20056;-81
2021/05/24 02:29:40;;;;;;;4.13;1.05;;;10.60;83.70;;;;;;3574355;40;20058;-81
2021/05/24 02:32:06;;;;;;;2.63;1.27;;;10.60;83.10;;;;;;3566014;40;20049;-81
2021/05/24 02:34:32;;;;;;;3.17;1.20;;;10.60;83.10;;;;;;3571420;40;20045;-80
2021/05/24 02:36:58;;;;;;;2.95;0.80;;;10.60;82.80;;;;;;3575961;40;20131;-83
2021/05/24 02:39:24;;;;;;;1.85;0.90;;;10.60;82.30;;;;;;3575444;40;20571;-81
2021/05/24 02:41:50;;;;;;;3.75;1.30;;;10.60;82.60;;;;;;3576799;40;20549;-84
2021/05/24 02:44:16;;;;;;;3.28;0.90;;;10.60;82.50;;;;;;3576185;40;20065;-81
2021/05/24 02:46:42;;;;;;;1.85;0.68;;;10.60;82.30;;;;;;3575549;40;20614;-83
2021/05/24 02:49:08;;;;;;;4.10;0.98;;;10.50;82.30;;;;;;3576626;40;20051;-82
2021/05/24 02:51:36;;;;;;;4.13;0.68;;;10.50;84.00;;;;;;3577002;40;20048;-80
2021/05/24 02:54:04;;;;;;;1.50;0.60;;;10.50;82.60;;;;;;3576934;40;20317;-80
2021/05/24 02:56:30;;;;;;;2.70;0.57;;;10.50;82.70;;;;;;3575750;40;20047;-82
2021/05/24 02:58:55;;;;;;;5.00;0.70;;;10.60;82.50;;;;;;3574949;40;20073;-81
2021/05/24 03:01:22;;;;;;;2.80;0.55;;;10.60;83.30;;;;;;3575756;40;20041;-81
2021/05/24 03:03:54;;;;;;;5.47;0.65;;;10.60;82.80;;;;;;3576698;40;20279;-84
2021/05/24 03:06:20;;;;;;;4.57;0.50;;;10.60;83.60;;;;;;3576648;40;20093;-81
2021/05/24 03:08:47;;;;;;;2.95;0.70;;;10.60;83.20;;;;;;3567458;40;20126;-82
2021/05/24 03:11:14;;;;;;;3.22;0.88;;;10.60;83.50;;;;;;3567175;40;20052;-83
2021/05/24 03:13:40;;;;;;;6.78;0.93;;;10.60;83.70;;;;;;3576958;40;20138;-81
2021/05/24 03:16:07;;;;;;;2.55;0.82;;;10.60;85.80;;;;;;3576446;40;20037;-81
2021/05/24 03:18:32;;;;;;;4.32;0.82;;;10.50;83.50;;;;;;3572400;40;20076;-79
2021/05/24 03:20:58;;;;;;;8.00;1.27;;;10.50;84.20;;;;;;3576556;40;20045;-81
2021/05/24 03:23:24;;;;;;;2.15;0.68;;;10.50;85.40;;;;;;3576646;40;20075;-81
2021/05/24 03:25:50;;;;;;;2.28;1.05;;;10.50;86.20;;;;;;3576482;40;20335;-81
2021/05/24 03:28:16;;;;;;;2.22;0.68;;;10.50;84.60;;;;;;3575763;40;20037;-78
2021/05/24 03:30:42;;;;;;;2.45;0.63;;;10.50;85.20;;;;;;3569897;40;20034;-78
2021/05/24 03:33:08;;;;;;;2.00;0.57;;;10.40;86.50;;;;;;3566304;40;20052;-79
2021/05/24 03:35:34;;;;;;;3.45;0.90;;;10.40;85.80;;;;;;3566502;40;20127;-79
2021/05/24 03:38:00;;;;;;;3.78;0.90;;;10.50;84.90;;;;;;3566538;40;20085;-81
2021/05/24 03:40:26;;;;;;;2.63;0.77;;;10.50;85.10;;;;;;3576131;40;20073;-78
2021/05/24 03:42:52;;;;;;;3.50;0.90;;;10.50;85.10;;;;;;3565508;40;20081;-82
2021/05/24 03:45:23;;;;;;;4.18;1.65;;;10.50;85.80;;;;;;3566832;40;20119;-82
2021/05/24 03:47:50;;;;;;;2.35;1.08;;;10.40;85.20;;;;;;3575303;40;20111;-80
2021/05/24 03:50:16;;;;;;;4.82;0.98;;;10.40;85.30;;;;;;3576023;40;20047;-79
2021/05/24 03:52:43;;;;;;;3.22;0.75;;;10.50;84.90;;;;;;3575562;40;20056;-80
2021/05/24 03:55:10;;;;;;;3.65;0.95;;;10.50;86.40;;;;;;3575880;40;20045;-79
2021/05/24 03:57:36;;;;;;;4.88;0.65;;;10.50;85.40;;;;;;3575044;40;20040;-82
2021/05/24 04:00:07;;;;;;;5.38;0.60;;;10.50;85.30;;;;;;3576500;40;20138;-82
2021/05/24 04:02:33;;;;;;;2.65;0.65;;;10.50;86.20;;;;;;3576347;40;20036;-81
2021/05/24 04:05:03;;;;;;;3.83;0.60;;;10.60;86.20;;;;;;3576535;40;20045;-82
2021/05/24 04:07:28;;;;;;;2.47;0.52;;;10.60;87.30;;;;;;3567646;40;20227;-82
2021/05/24 04:09:55;;;;;;;2.90;0.95;;;10.60;84.70;;;;;;3567134;40;20047;-83
2021/05/24 04:12:21;;;;;;;1.95;0.70;;;10.50;84.80;;;;;;3576830;40;20081;-81
2021/05/24 04:14:47;;;;;;;4.65;0.70;;;10.60;84.50;;;;;;3575539;40;20043;-81
2021/05/24 04:17:15;;;;;;;5.95;1.08;;;10.60;84.50;;;;;;3573667;40;20041;-82
2021/05/24 04:19:43;;;;;;;5.40;1.10;;;10.60;85.10;;;;;;3566808;40;20045;-80
2021/05/24 04:22:10;;;;;;;3.58;1.20;;;10.60;85.20;;;;;;3566281;40;20085;-79
2021/05/24 04:24:36;;;;;;;1.38;0.60;;;10.60;85.70;;;;;;3566389;40;20057;-83
2021/05/24 04:27:02;;;;;;;3.88;1.42;;;10.60;84.80;;;;;;3566142;40;20358;-82
2021/05/24 04:29:28;;;;;;;1.75;0.73;;;10.60;85.40;;;;;;3573799;40;20331;-82
2021/05/24 04:31:54;;;;;;;3.10;0.80;;;10.60;85.30;;;;;;3576203;40;20339;-81
2021/05/24 04:34:20;;;;;;;3.22;1.25;;;10.60;85.50;;;;;;3576179;40;20139;-83
2021/05/24 04:36:46;;;;;;;2.45;0.60;;;10.60;84.90;;;;;;3576245;40;20040;-82
2021/05/24 04:39:11;;;;;;;2.85;0.95;;;10.60;85.50;;;;;;3576248;40;20331;-84
2021/05/24 04:41:37;;;;;;;2.00;0.70;;;10.60;85.60;;;;;;3575850;40;20137;-83
2021/05/24 04:44:19;;;;;;;1.95;0.82;;;10.60;85.70;;;;;;3576011;40;20041;-83
2021/05/24 04:46:46;;;;;;;1.13;0.60;;;10.50;86.20;;;;;;3574705;40;20025;-81
2021/05/24 04:49:12;;;;;;;2.45;0.80;;;10.50;86.20;;;;;;3575085;40;20048;-85
2021/05/24 04:51:38;;;;;;;3.20;0.90;;;10.60;86.40;;;;;;3575175;40;20052;-80
2021/05/24 04:54:06;;;;;;;1.85;0.50;;;10.60;87.10;;;;;;3575190;40;20040;-81
2021/05/24 04:56:32;;;;;;;3.80;0.40;;;10.60;86.10;;;;;;3575861;40;20049;-84
2021/05/24 04:58:58;;;;;;;3.03;0.60;;;10.60;86.40;;;;;;3575421;40;20041;-85
2021/05/24 05:01:24;;;;;;;3.80;0.60;;;10.60;86.20;;;;;;3575001;40;20360;-82
2021/05/24 05:03:50;;;;;;;1.33;0.60;;;10.60;86.30;;;;;;3577571;40;20052;-86
2021/05/24 05:06:15;;;;;;;6.03;0.70;;;10.60;86.00;;;;;;3576621;40;20041;-84
2021/05/24 05:08:41;;;;;;;6.63;1.23;;;10.60;86.00;;;;;;3576562;40;20164;-84
2021/05/24 05:11:07;;;;;;;2.92;0.82;;;10.70;85.70;;;;;;3577161;40;20053;-83
2021/05/24 05:13:33;;;;;;;1.60;0.60;;;10.70;86.10;;;;;;3576452;40;20045;-84
2021/05/24 05:15:59;;;;;;;4.63;1.13;;;10.70;86.30;;;;;;3577453;40;20043;-81
2021/05/24 05:18:25;;;;;;;2.45;0.63;;;10.80;85.90;;;;;;3576271;40;20032;-82
2021/05/24 05:20:50;;;;;;;1.80;0.68;;;10.80;86.10;;;;;;3577792;40;20040;-86
2021/05/24 05:23:16;;;;;;;2.88;0.85;;;10.80;85.80;;;;;;3576927;40;20073;-85
2021/05/24 05:25:43;;;;;;;1.75;0.75;;;10.90;86.40;;;;;;3577558;40;20330;-84
2021/05/24 05:28:10;;;;;;;1.25;0.40;;;10.90;85.90;;;;;;3575513;40;20053;-83
2021/05/24 05:30:36;;;;;;;3.83;0.40;;;10.90;85.60;;;;;;3575053;40;20041;-82
2021/05/24 05:33:03;;;;;;;2.60;0.50;;;10.90;85.50;;;;;;3576873;40;20049;-84
2021/05/24 05:35:29;;;;;;;4.85;0.57;;;11.00;85.90;;;;;;3577111;40;20063;-84
2021/05/24 05:37:55;;;;;;;1.08;0.50;;;11.00;85.90;;;;;;3575552;40;20076;-86
2021/05/24 05:40:21;;;;;;;1.02;0.30;;;11.00;86.00;;;;;;3577350;40;20426;-85
2021/05/24 05:42:48;;;;;;;2.42;0.30;;;11.00;85.70;;;;;;3577099;40;20232;-83
2021/05/24 05:45:16;;;;;;;0.35;0.20;;;11.10;85.60;;;;;;3577145;40;20540;-85
2021/05/24 05:47:43;;;;;;;2.35;0.30;;;11.10;85.30;;;;;;3572585;40;20049;-86
2021/05/24 05:50:11;;;;;;;1.90;0.30;;;11.20;85.30;;;;;;3574635;40;20423;-84
2021/05/24 05:52:37;;;;;;;1.65;0.30;;;11.20;85.10;;;;;;3576545;40;20056;-84
2021/05/24 05:55:07;;;;;;;1.35;0.30;;;11.20;85.30;;;;;;3575392;40;20041;-85
2021/05/24 05:57:33;;;;;;;4.57;0.43;;;11.20;86.00;;;;;;3563758;40;20048;-87
2021/05/24 05:59:59;;;;;;;4.45;0.35;;;11.20;85.40;;;;;;3572951;40;20061;-86
2021/05/24 06:02:25;;;;;;;2.15;0.35;;;11.30;86.30;;;;;;3580096;40;20036;-81
2021/05/24 06:04:51;;;;;;;2.83;0.55;;;11.40;86.30;;;;;;3569078;40;20033;-86
2021/05/24 06:07:17;;;;;;;0.80;0.30;;;11.40;85.80;;;;;;3568895;40;20118;-86
2021/05/24 06:09:43;;;;;;;2.05;0.57;;;11.50;85.90;;;;;;3578223;40;20053;-85
2021/05/24 06:12:10;;;;;;;2.42;0.30;;;11.50;86.30;;;;;;3568589;40;20126;-81
2021/05/24 06:14:37;;;;;;;1.63;0.43;;;11.60;85.90;;;;;;3577210;40;20455;-85
2021/05/24 06:17:04;;;;;;;2.05;0.28;;;11.60;85.90;;;;;;3576738;40;20409;-86
2021/05/24 06:19:30;;;;;;;1.00;0.25;;;11.60;85.90;;;;;;3576581;40;20070;-81
2021/05/24 06:21:56;;;;;;;2.05;0.32;;;11.70;85.50;;;;;;3576297;40;20044;-83
2021/05/24 06:24:22;;;;;;;4.05;2.00;;;11.80;85.50;;;;;;3576134;40;20041;-84
2021/05/24 06:26:49;;;;;;;1.73;0.30;;;11.90;85.80;;;;;;3576946;40;20044;-85
2021/05/24 06:29:21;;;;;;;2.40;0.70;;;12.00;85.50;;;;;;3575793;40;20696;-82
2021/05/24 06:31:51;;;;;;;4.43;0.20;;;12.00;85.50;;;;;;3575862;40;20036;-83
2021/05/24 06:34:17;;;;;;;0.90;0.38;;;12.10;85.40;;;;;;3576999;40;20040;-85
2021/05/24 06:36:43;;;;;;;3.15;0.20;;;12.20;85.70;;;;;;3576913;40;20052;-85
2021/05/24 06:39:09;;;;;;;2.40;0.30;;;12.20;85.30;;;;;;3576477;40;20077;-84
2021/05/24 06:41:34;;;;;;;1.40;0.30;;;12.30;85.80;;;;;;3575638;40;20142;-85
2021/05/24 06:44:00;;;;;;;3.60;0.20;;;12.30;85.50;;;;;;3574224;40;20095;-83
2021/05/24 06:46:26;;;;;;;0.63;0.20;;;12.40;85.40;;;;;;3569452;40;20037;-81
2021/05/24 06:48:52;;;;;;;0.75;0.20;;;12.40;85.20;;;;;;3570736;40;20048;-83
2021/05/24 06:51:19;;;;;;;1.92;0.52;;;12.60;85.20;;;;;;3558837;40;20044;-84
2021/05/24 06:53:44;;;;;;;1.35;0.30;;;12.60;85.00;;;;;;3569576;40;20033;-83
2021/05/24 06:56:11;;;;;;;4.18;0.45;;;12.60;85.20;;;;;;3570020;40;20415;-82
2021/05/24 06:58:36;;;;;;;1.02;0.10;;;12.70;85.00;;;;;;3569434;40;20049;-84
2021/05/24 07:01:03;;;;;;;1.20;0.30;;;12.70;85.00;;;;;;3575972;40;20149;-81
2021/05/24 07:03:28;;;;;;;0.88;0.20;;;12.70;84.90;;;;;;3574069;40;20321;-83
2021/05/24 07:05:56;;;;;;;3.00;0.35;;;12.80;84.90;;;;;;3566103;40;20052;-84
2021/05/24 07:08:22;;;;;;;0.43;0.20;;;12.80;84.70;;;;;;3576303;40;20240;-80
2021/05/24 07:10:48;;;;;;;3.22;0.57;;;12.90;84.60;;;;;;3575082;40;20044;-84
2021/05/24 07:13:15;;;;;;;3.03;0.30;;;12.90;84.40;;;;;;3566672;40;20405;-84
2021/05/24 07:15:41;;;;;;;1.95;0.20;;;13.00;84.70;;;;;;3576113;40;20033;-84
2021/05/24 07:18:07;;;;;;;1.42;0.88;;;13.00;84.70;;;;;;3574568;40;20044;-83
2021/05/24 07:20:33;;;;;;;1.13;0.22;;;13.10;84.60;;;;;;3575665;40;20061;-82
2021/05/24 07:22:58;;;;;;;2.03;0.20;;;13.10;84.80;;;;;;3574789;40;20051;-83
2021/05/24 07:25:24;;;;;;;0.85;0.50;;;13.20;84.70;;;;;;3575773;40;20252;-81
2021/05/24 07:27:51;;;;;;;1.10;0.20;;;13.30;84.50;;;;;;3566780;40;20045;-81
2021/05/24 07:30:17;;;;;;;0.60;0.20;;;13.40;84.60;;;;;;3575713;40;20048;-83
2021/05/24 07:32:43;;;;;;;0.65;0.10;;;13.50;84.50;;;;;;3575785;40;20056;-83
2021/05/24 07:35:10;;;;;;;3.75;0.57;;;13.50;84.20;;;;;;3575478;40;20605;-81
2021/05/24 07:37:36;;;;;;;0.60;0.20;;;13.60;84.30;;;;;;3570149;40;20048;-83
2021/05/24 07:40:07;;;;;;;1.63;0.20;;;13.70;83.90;;;;;;3576211;40;20036;-82
2021/05/24 07:42:33;;;;;;;2.65;0.25;;;13.80;84.10;;;;;;3576444;40;20147;-83
2021/05/24 07:44:59;;;;;;;0.60;0.30;;;13.90;83.90;;;;;;3575349;40;20053;-82
2021/05/24 07:47:25;;;;;;;0.60;0.20;;;14.10;84.30;;;;;;3576092;40;20094;-84
2021/05/24 07:49:51;;;;;;;0.90;0.20;;;14.30;84.10;;;;;;3575415;40;20037;-83
2021/05/24 07:52:17;;;;;;;2.00;0.50;;;14.70;83.60;;;;;;3574425;40;20056;-84
2021/05/24 07:54:44;;;;;;;1.52;0.20;;;15.00;83.10;;;;;;3563252;40;20099;-85
2021/05/24 07:57:10;;;;;;;0.82;0.30;;;15.20;83.40;;;;;;3570288;40;20037;-84
2021/05/24 07:59:35;;;;;;;2.22;0.20;;;15.40;83.00;;;;;;3575392;40;20079;-82
2021/05/24 08:02:06;;;;;;;2.15;0.30;;;15.70;81.20;;;;;;3567209;40;20041;-82
2021/05/24 08:04:32;;;;;;;2.78;0.20;;;16.00;81.20;;;;;;3560645;40;20072;-83
2021/05/24 08:06:58;;;;;;;2.25;0.57;;;16.10;82.10;;;;;;3574591;40;20417;-83
2021/05/24 08:09:23;;;;;;;2.17;0.20;;;16.20;82.40;;;;;;3566598;40;20044;-84
2021/05/24 08:11:51;;;;;;;1.60;0.20;;;16.40;81.90;;;;;;3575972;40;20366;-84
2021/05/24 08:14:17;;;;;;;1.38;0.65;;;16.40;81.60;;;;;;3575814;40;20040;-83
2021/05/24 08:16:44;;;;;;;0.85;0.20;;;16.40;81.60;;;;;;3566930;40;20052;-83
2021/05/24 08:19:11;;;;;;;1.00;0.20;;;16.50;80.50;;;;;;3571317;40;20073;-84
2021/05/24 08:21:40;;;;;;;4.00;0.40;;;16.50;78.40;;;;;;3575666;40;20287;-85
2021/05/24 08:24:06;;;;;;;1.00;0.40;;;16.40;79.20;;;;;;3575433;40;20043;-83
2021/05/24 08:26:32;;;;;;;0.57;0.15;;;16.40;80.40;;;;;;3575517;40;20051;-82
2021/05/24 08:28:59;;;;;;;2.03;0.20;;;16.30;80.50;;;;;;3565500;40;20041;-83
2021/05/24 08:31:24;;;;;;;0.50;0.10;;;16.20;80.20;;;;;;3574714;40;20043;-82
2021/05/24 08:33:50;;;;;;;0.95;0.20;;;16.20;80.40;;;;;;3574444;40;20040;-82
2021/05/24 08:36:16;;;;;;;1.00;0.35;;;16.40;80.30;;;;;;3575150;40;20036;-82
2021/05/24 08:38:42;;;;;;;0.88;0.20;;;16.60;78.30;;;;;;3577394;40;20059;-81
2021/05/24 08:41:09;;;;;;;2.08;0.15;;;16.80;78.40;;;;;;3576429;40;20037;-82
2021/05/24 08:43:36;;;;;;;1.27;0.20;;;17.10;78.30;;;;;;3577032;40;20130;-82
2021/05/24 08:46:03;;;;;;;0.93;0.30;;;17.20;78.00;;;;;;3575982;40;20045;-83
2021/05/24 08:48:29;;;;;;;2.97;0.20;;;17.30;76.80;;;;;;3577144;40;20278;-82
2021/05/24 08:50:58;;;;;;;1.25;0.28;;;17.50;77.50;;;;;;3577007;40;20053;-84
2021/05/24 08:53:24;;;;;;;2.05;0.20;;;17.50;74.40;;;;;;3576594;40;20039;-82
2021/05/24 08:55:53;;;;;;;1.63;0.15;;;17.50;74.50;;;;;;3577588;40;20037;-82
2021/05/24 08:58:19;;;;;;;3.15;0.20;;;17.40;74.00;;;;;;3576123;40;20598;-82
2021/05/24 09:00:45;;;;;;;1.75;0.20;;;17.40;76.00;;;;;;3577379;40;20045;-83
2021/05/24 09:03:22;;;;;;;1.85;0.60;;;17.40;75.70;;;;;;3576288;40;20275;-82
2021/05/24 09:05:49;;;;;;;3.70;0.55;;;17.40;75.10;;;;;;3577271;40;20647;-82
2021/05/24 09:08:15;;;;;;;3.08;0.30;;;17.50;75.80;;;;;;3577113;40;20048;-82
2021/05/24 09:10:43;;;;;;;1.33;0.20;;;17.50;76.60;;;;;;3576023;40;20041;-82
2021/05/24 09:13:15;;;;;;;2.20;0.20;;;17.50;76.20;;;;;;3577064;40;20045;-82
2021/05/24 09:15:44;;;;;;;1.45;0.35;;;17.40;72.30;;;;;;3575485;40;20045;-81
2021/05/24 09:18:11;;;;;;;1.17;0.10;;;17.30;75.40;;;;;;3575505;40;20093;-82
2021/05/24 09:20:39;;;;;;;1.95;0.20;;;17.20;75.30;;;;;;3573365;40;20052;-82
2021/05/24 09:23:24;;;;;;;1.25;0.40;;;17.20;75.90;;;;;;3576867;40;20037;-82
2021/05/24 09:26:03;;;;;;;0.52;0.10;;;17.20;75.80;;;;;;3576022;40;20033;-82
2021/05/24 09:28:49;;;;;;;3.22;0.28;;;17.20;73.70;;;;;;3577342;40;20049;-82
2021/05/24 09:31:31;;;;;;;2.20;0.38;;;17.20;71.90;;;;;;3575354;40;20044;-81
2021/05/24 09:34:04;;;;;;;2.42;0.20;;;17.20;74.80;;;;;;3575432;40;20040;-81
2021/05/24 09:36:30;;;;;;;2.65;0.30;;;17.30;76.30;;;;;;3577080;40;20044;-81
2021/05/24 09:39:05;;;;;;;3.03;0.30;;;17.30;76.50;;;;;;3575769;40;20040;-81
2021/05/24 09:41:43;;;;;;;0.50;0.15;;;17.20;76.10;;;;;;3576105;40;20347;-80
2021/05/24 09:44:22;;;;;;;3.80;0.50;;;17.10;74.80;;;;;;3575874;40;20040;-81
2021/05/24 09:46:50;;;;;;;0.50;0.20;;;17.00;74.30;;;;;;3575379;40;20044;-80
2021/05/24 09:49:17;;;;;;;1.40;0.73;;;16.90;76.80;;;;;;3575176;40;20552;-80
2021/05/24 09:51:45;;;;;;;0.88;0.20;;;16.80;77.20;;;;;;3577106;40;20041;-80
2021/05/24 09:54:13;;;;;;;0.60;0.20;;;16.70;77.60;;;;;;3566001;40;20417;-80
2021/05/24 09:56:46;;;;;;;1.40;0.20;;;16.70;77.80;;;;;;3576057;40;20094;-80
2021/05/24 09:59:14;;;;;;;2.45;0.30;;;16.70;77.00;;;;;;3576575;40;20187;-80
2021/05/24 10:01:44;;;;;;;3.13;0.65;;;16.60;77.60;;;;;;3576605;40;20045;-81
2021/05/24 10:04:12;;;;;;;1.23;0.20;;;16.50;77.00;;;;;;3575868;40;20056;-81
2021/05/24 10:06:38;;;;;;;0.75;0.15;;;16.40;77.50;;;;;;3576765;40;20037;-81
2021/05/24 10:09:06;;;;;;;0.20;0.10;;;16.40;77.30;;;;;;3576628;40;20041;-80
2021/05/24 10:11:33;;;;;;;0.68;0.20;;;16.30;77.20;;;;;;3577034;40;20518;-79
2021/05/24 10:14:00;;;;;;;0.82;0.20;;;16.20;77.30;;;;;;3575068;40;20043;-81
2021/05/24 10:16:36;;;;;;;0.70;0.30;;;16.10;76.30;;;;;;3576854;40;20043;-81
2021/05/24 10:19:03;;;;;;;0.70;0.10;;;16.10;76.20;;;;;;3571250;40;20044;-81
2021/05/24 10:21:29;;;;;;;1.30;0.10;;;16.00;76.90;;;;;;3576736;40;20053;-80
2021/05/24 10:23:55;;;;;;;0.73;0.17;;;15.90;76.90;;;;;;3576593;40;20060;-81
2021/05/24 10:26:22;;;;;;;0.82;0.20;;;15.90;76.60;;;;;;3576047;40;20036;-80
2021/05/24 10:28:49;;;;;;;2.92;0.20;;;15.70;76.70;;;;;;3576546;40;20095;-81
2021/05/24 10:31:20;;;;;;;3.25;0.68;;;15.60;77.40;;;;;;3575621;40;20049;-80
2021/05/24 10:33:48;;;;;;;2.03;0.20;;;15.50;77.90;;;;;;3576561;40;20045;-81
2021/05/24 10:36:18;;;;;;;0.95;0.20;;;15.40;78.30;;;;;;3575606;40;20048;-81
2021/05/24 10:38:44;;;;;;;1.20;0.10;;;15.30;78.60;;;;;;3576840;40;20041;-81
2021/05/24 10:41:12;;;;;;;1.33;0.20;;;15.20;79.10;;;;;;3576432;40;20542;-81
2021/05/24 10:43:39;;;;;;;1.38;0.25;;;15.10;79.70;;;;;;3576558;40;20408;-80
2021/05/24 10:46:31;;;;;;;1.88;0.40;;;15.00;80.20;;;;;;3575314;40;20312;-80
2021/05/24 10:49:15;;;;;;;1.60;0.40;;;14.90;80.90;;;;;;3576341;40;20041;-81
2021/05/24 10:51:47;;;;;;;3.08;0.32;;;14.80;80.90;;;;;;3576920;40;20052;-81
2021/05/24 10:54:39;;;;;;;2.90;0.43;;;14.70;81.20;;;;;;3576388;40;20051;-81
2021/05/24 10:57:06;;;;;;;3.42;0.30;;;14.70;82.60;;;;;;3573393;40;20357;-81
2021/05/24 10:59:41;;;;;;;0.77;0.30;;;14.60;81.80;;;;;;3575706;40;20040;-81
2021/05/24 11:02:11;;;;;;;1.20;0.40;;;14.60;83.30;;;;;;3576374;40;20036;-81
2021/05/24 11:04:52;;;;;;;1.02;0.30;;;14.70;83.00;;;;;;3575670;40;20048;-81
2021/05/24 11:07:28;;;;;;;1.95;0.50;;;14.80;83.10;;;;;;3573540;40;20036;-80
2021/05/24 11:10:17;;;;;;;1.40;0.30;;;14.80;83.30;;;;;;3576216;40;20045;-81
2021/05/24 11:12:47;;;;;;;0.90;0.30;;;14.80;84.40;;;;;;3576524;40;20033;-81
2021/05/24 11:15:13;;;;;;;0.88;0.40;;;14.80;83.10;;;;;;3575380;40;20057;-81
2021/05/24 11:17:57;;;;;;;1.48;0.30;;;14.80;84.30;;;;;;3575454;40;20275;-81
2021/05/24 11:20:37;;;;;;;1.92;0.55;;;14.90;84.50;;;;;;3574179;40;20040;-80
2021/05/24 11:24:03;;;;;;;0.65;0.20;;;14.90;84.00;;;;;;3576236;40;20040;-82
2021/05/24 11:28:42;;;;;;;1.13;0.30;;;15.00;84.60;;;;;;3576243;40;20077;-81
2021/05/24 11:31:21;;;;;;;2.83;0.20;;;15.10;83.80;;;;;;3574831;40;20048;-81
2021/05/24 11:33:48;;;;;;;1.80;0.20;;;15.20;83.10;;;;;;3575685;40;20057;-81
2021/05/24 11:36:34;;;;;;;1.30;0.40;;;15.30;82.10;;;;;;3572272;40;20255;-81
2021/05/24 11:39:10;;;;;;;3.45;0.30;;;15.30;81.60;;;;;;3559182;40;20037;-81
2021/05/24 11:41:43;;;;;;;0.93;0.20;;;15.30;81.90;;;;;;3570253;40;20043;-81
2021/05/24 11:44:09;;;;;;;1.27;0.30;;;15.30;81.00;;;;;;3572072;40;20354;-80
2021/05/24 11:46:46;;;;;;;1.67;0.38;;;15.20;81.50;;;;;;3575479;40;20064;-82
2021/05/24 11:49:13;;;;;;;1.48;0.30;;;15.20;81.90;;;;;;3566545;40;20046;-82
2021/05/24 11:51:41;;;;;;;1.77;0.32;;;15.20;81.50;;;;;;3574393;40;20040;-81
2021/05/24 11:54:10;;;;;;;0.93;0.30;;;15.10;80.60;;;;;;3568185;40;20033;-81
2021/05/24 11:56:38;;;;;;;2.25;0.32;;;14.90;81.10;;;;;;3572104;40;20235;-81
2021/05/24 11:59:05;;;;;;;2.65;0.30;;;14.80;81.10;;;;;;3571752;40;20047;-80
2021/05/24 12:01:32;;;;;;;3.40;0.55;;;14.80;81.90;;;;;;3570796;40;20040;-81
2021/05/24 12:04:03;;;;;;;2.22;0.73;;;14.80;81.70;;;;;;3571973;40;20320;-82
2021/05/24 12:06:43;;;;;;;1.77;0.40;;;14.80;81.90;;;;;;3568930;40;20043;-81
2021/05/24 12:09:09;;;;;;;2.92;0.40;;;14.80;82.40;;;;;;3572132;40;20041;-80
2021/05/24 12:11:36;;;;;;;0.75;0.45;;;14.80;82.20;;;;;;3570023;40;20033;-82
2021/05/24 12:14:08;;;;;;;1.42;0.32;;;14.80;83.00;;;;;;3570418;40;20047;-81
2021/05/24 12:16:34;;;;;;;2.67;0.22;;;14.90;82.60;;;;;;3568450;40;20048;-81
2021/05/24 12:19:01;;;;;;;0.43;0.43;;;14.90;82.20;;;;;;3571659;40;20053;-82
2021/05/24 12:21:32;;;;;;;1.60;0.50;;;14.90;81.60;;;;;;3568030;40;20049;-81
2021/05/24 12:24:00;;;;;;;3.38;1.13;;;14.70;82.20;;;;;;3560160;40;20052;-81
2021/05/24 12:26:26;;;;;;;2.95;0.38;;;14.60;81.50;;;;;;3565831;40;20052;-81
2021/05/24 12:28:52;;;;;;;3.65;0.63;;;14.50;81.60;;;;;;3570333;40;20041;-82
2021/05/24 12:31:18;;;;;;;1.13;0.43;;;14.40;82.20;;;;;;3572104;40;20041;-82
2021/05/24 12:33:46;;;;;;;2.05;0.30;;;14.40;82.60;;;;;;3570122;40;20033;-80
2021/05/24 12:36:18;;;;;;;1.80;0.40;;;14.30;83.20;;;;;;3570367;40;20056;-82
2021/05/24 12:38:47;;;;;;;1.50;0.38;;;14.40;83.20;;;;;;3572011;40;20032;-81
2021/05/24 12:41:14;;;;;;;1.10;0.30;;;14.40;83.60;;;;;;3564643;40;20104;-83
2021/05/24 12:43:56;;;;;;;3.33;0.85;;;14.40;83.80;;;;;;3569560;40;20037;-83
2021/05/24 12:46:22;;;;;;;1.80;0.30;;;14.40;85.60;;;;;;3568871;40;20041;-81
2021/05/24 12:48:52;;;;;;;2.53;0.80;;;14.40;83.90;;;;;;3569650;40;20118;-81
2021/05/24 12:51:23;;;;;;;3.13;0.60;;;14.40;84.30;;;;;;3568652;40;20091;-83
2021/05/24 12:54:01;;;;;;;1.85;0.50;;;14.40;85.30;;;;;;3571624;40;20037;-84
2021/05/24 12:56:37;;;;;;;2.75;0.40;;;14.40;85.70;;;;;;3571468;40;20433;-79